Terminal Aerodrome Forecast
Issued by NWS

Home | Current Version | Previous Version | Graphics & Text | Print | Product List | Glossary On
Versions: 1 2 3 4 5 6 7 8 9 10 11 12 13 14 15 16 17 18 19
000
FTUS43 KICT 241603 AAA
TAFSLN
TAF AMD
KSLN 241603Z 2416/2512 36008KT P6SM SCT008 OVC015
      TEMPO 2416/2418 5SM -RA BR BKN008 OVC015
     FM241900 33018G25KT P6SM SCT030
     FM250000 VRB05KT P6SM SCT250=

USA.gov is the U.S. government's official web portal to all federal, state and local government web resources and services.